Time;durP1;ratioP1;P1;durP2;ratioP2;P2;SDS_P1;SDS_P2;PMS_P1;PMS_P2;Temp;Humidity;BMP_temperature;BMP_pressure;BME280_temperature;BME280_humidity;BME280_pressure;Samples;Min_cycle;Max_cycle;Signal;HPM_P1;HPM_P2
2023/08/16 00:01:13;;;;;;;;;7.00;7.00;;;;;25.15;42.58;99268.19;5076602;28;45364;-64
2023/08/16 00:03:39;;;;;;;;;5.75;5.75;;;;;25.10;43.05;99269.66;5076454;28;45518;-64
2023/08/16 00:06:11;;;;;;;;;8.00;7.00;;;;;25.01;43.27;99274.09;5076224;28;45427;-64
2023/08/16 00:08:38;;;;;;;;;9.00;7.75;;;;;24.91;43.46;99271.41;5076096;28;45437;-64
2023/08/16 00:11:04;;;;;;;;;10.00;8.20;;;;;24.84;43.75;99273.00;5076105;28;45535;-64
2023/08/16 00:13:29;;;;;;;;;8.00;8.00;;;;;24.76;43.87;99269.34;5076108;28;45433;-63
2023/08/16 00:15:55;;;;;;;;;6.75;6.25;;;;;24.68;44.02;99270.91;5076239;28;45443;-63
2023/08/16 00:18:20;;;;;;;;;8.75;7.75;;;;;24.60;43.85;99280.75;5075422;28;46675;-63
2023/08/16 00:20:46;;;;;;;;;8.00;8.00;;;;;24.56;44.16;99274.81;5075860;28;45404;-63
2023/08/16 00:23:11;;;;;;;;;4.75;4.75;;;;;24.53;44.18;99271.53;5075987;28;45506;-63
2023/08/16 00:25:37;;;;;;;;;6.25;6.25;;;;;24.50;44.57;99267.28;5076316;28;45384;-63
2023/08/16 00:28:02;;;;;;;;;7.00;7.00;;;;;24.48;43.47;99269.28;5076267;28;46425;-63
2023/08/16 00:30:28;;;;;;;;;9.00;7.25;;;;;24.47;44.17;99262.19;5076064;28;45436;-62
2023/08/16 00:32:53;;;;;;;;;8.25;8.25;;;;;24.49;44.34;99259.34;5075691;28;45524;-62
2023/08/16 00:35:19;;;;;;;;;9.25;9.00;;;;;24.48;44.27;99261.19;5075804;28;45602;-63
2023/08/16 00:37:44;;;;;;;;;9.50;9.50;;;;;24.48;44.58;99257.63;5074480;28;45770;-63
2023/08/16 00:40:10;;;;;;;;;8.50;7.75;;;;;24.45;44.35;99253.41;5076317;28;45368;-63
2023/08/16 00:42:35;;;;;;;;;11.50;11.50;;;;;24.43;44.39;99255.41;5076568;28;45318;-63
2023/08/16 00:45:01;;;;;;;;;17.75;14.75;;;;;24.37;44.45;99261.38;5076239;28;45415;-63
2023/08/16 00:47:27;;;;;;;;;11.75;9.50;;;;;24.30;44.24;99257.53;5074775;28;46177;-63
2023/08/16 00:49:52;;;;;;;;;11.50;9.00;;;;;24.26;44.32;99262.41;5075773;28;45369;-63
2023/08/16 00:52:18;;;;;;;;;14.75;11.50;;;;;24.23;44.19;99256.41;5076157;28;45481;-63
2023/08/16 00:54:43;;;;;;;;;11.00;9.00;;;;;24.22;43.96;99252.00;5076095;27;45459;-63
2023/08/16 00:57:09;;;;;;;;;14.00;11.25;;;;;24.21;44.09;99253.00;5075923;28;45520;-63
2023/08/16 00:59:36;;;;;;;;;8.50;8.50;;;;;24.22;43.96;99257.41;5075746;28;45485;-63
2023/08/16 01:02:01;;;;;;;;;11.75;10.00;;;;;24.22;44.50;99254.69;5076057;28;45368;-63
2023/08/16 01:04:27;;;;;;;;;12.50;12.50;;;;;24.20;44.84;99252.16;5075294;28;45377;-64
2023/08/16 01:06:57;;;;;;;;;15.25;13.50;;;;;24.18;44.78;99255.97;5075634;28;46707;-63
2023/08/16 01:09:24;;;;;;;;;16.50;15.50;;;;;24.16;45.12;99252.56;5075680;28;45487;-63
2023/08/16 01:11:52;;;;;;;;;14.00;11.00;;;;;24.13;45.07;99252.88;5075922;28;45383;-63
2023/08/16 01:14:25;;;;;;;;;3.25;3.25;;;;;24.11;44.83;99246.78;5075790;28;45399;-63
2023/08/16 01:16:51;;;;;;;;;10.50;10.50;;;;;24.09;44.48;99252.31;5074242;28;47008;-63
2023/08/16 01:19:28;;;;;;;;;9.20;8.20;;;;;24.09;44.46;99248.78;5075173;28;45466;-63
2023/08/16 01:22:04;;;;;;;;;11.50;9.00;;;;;24.11;44.19;99249.50;5075867;28;45310;-63
2023/08/16 01:24:41;;;;;;;;;6.50;6.50;;;;;24.13;44.20;99250.19;5075688;27;45332;-63
2023/08/16 01:27:06;;;;;;;;;7.75;7.50;;;;;24.14;44.61;99251.88;5075537;28;45377;-63
2023/08/16 01:29:33;;;;;;;;;8.25;8.25;;;;;24.14;44.26;99244.63;5075615;28;45392;-63
2023/08/16 01:31:58;;;;;;;;;7.25;7.25;;;;;24.14;44.29;99250.03;5091092;27;45391;-63
2023/08/16 01:34:24;;;;;;;;;8.75;7.75;;;;;24.13;44.18;99250.19;5075054;28;45505;-63
2023/08/16 01:36:49;;;;;;;;;10.00;8.25;;;;;24.13;44.75;99250.19;5075206;28;45481;-68
2023/08/16 01:39:14;;;;;;;;;9.75;9.75;;;;;24.10;44.33;99254.03;5074990;28;45404;-63
2023/08/16 01:41:48;;;;;;;;;8.75;8.75;;;;;24.08;45.02;99252.47;5075371;28;45462;-63
2023/08/16 01:44:17;;;;;;;;;9.00;9.00;;;;;24.06;44.54;99249.06;5074919;28;45605;-63
2023/08/16 01:46:43;;;;;;;;;8.00;8.00;;;;;24.05;44.44;99250.06;5075115;28;45479;-63
2023/08/16 01:49:10;;;;;;;;;7.00;6.00;;;;;24.04;45.11;99248.34;5074775;28;45382;-63
2023/08/16 01:51:36;;;;;;;;;8.00;7.25;;;;;24.00;45.94;99245.09;5073813;28;45428;-63
2023/08/16 01:54:02;;;;;;;;;9.00;9.00;;;;;23.96;45.96;99257.16;5074688;28;45593;-63
2023/08/16 01:56:27;;;;;;;;;7.00;7.00;;;;;23.93;46.33;99254.75;5074470;28;46092;-63
2023/08/16 01:58:53;;;;;;;;;7.50;7.25;;;;;23.91;46.35;99249.50;5074943;28;45360;-63
2023/08/16 02:01:18;;;;;;;;;11.50;10.00;;;;;23.86;46.49;99249.06;5075250;28;45388;-62
2023/08/16 02:03:43;;;;;;;;;9.75;9.75;;;;;23.79;47.00;99247.97;5074622;28;45424;-63
2023/08/16 02:06:09;;;;;;;;;10.25;9.25;;;;;23.73;47.17;99261.97;5074802;28;46893;-63
2023/08/16 02:08:34;;;;;;;;;10.50;8.00;;;;;23.69;47.29;99267.78;5074844;28;45461;-63
2023/08/16 02:11:00;;;;;;;;;8.25;8.25;;;;;23.63;47.06;99258.41;5075218;28;45353;-63
2023/08/16 02:13:25;;;;;;;;;15.75;13.75;;;;;23.60;47.33;99264.94;5074805;28;45542;-63
2023/08/16 02:16:03;;;;;;;;;10.00;9.50;;;;;23.60;47.54;99261.41;5074560;28;45398;-63
2023/08/16 02:18:30;;;;;;;;;7.60;7.60;;;;;23.54;46.99;99261.97;5074313;28;45455;-63
2023/08/16 02:20:55;;;;;;;;;9.00;7.75;;;;;23.47;47.41;99258.94;5075077;28;45374;-63
2023/08/16 02:23:21;;;;;;;;;13.50;10.00;;;;;23.43;47.29;99254.00;5074772;28;45524;-63
2023/08/16 02:25:46;;;;;;;;;12.00;10.75;;;;;23.35;47.24;99256.50;5074490;28;46237;-63
2023/08/16 02:28:11;;;;;;;;;9.25;9.25;;;;;23.30;47.11;99248.84;5073370;28;45640;-63
2023/08/16 02:30:37;;;;;;;;;11.25;9.00;;;;;23.29;47.89;99252.56;5074497;28;45452;-63
2023/08/16 02:33:02;;;;;;;;;10.75;9.25;;;;;23.28;47.84;99251.69;5073909;28;45626;-63
2023/08/16 02:35:28;;;;;;;;;12.25;11.25;;;;;23.28;48.57;99245.47;5074019;28;45447;-63
2023/08/16 02:37:54;;;;;;;;;10.25;10.25;;;;;23.25;47.54;99246.59;5072982;28;45326;-63
2023/08/16 02:40:19;;;;;;;;;12.25;11.00;;;;;23.23;48.15;99247.72;5074787;27;45379;-63
2023/08/16 02:42:46;;;;;;;;;10.00;9.25;;;;;23.19;47.75;99243.59;5074288;28;45545;-63
2023/08/16 02:45:12;;;;;;;;;12.00;9.75;;;;;23.15;47.50;99244.84;5074164;27;45460;-63
2023/08/16 02:47:37;;;;;;;;;8.50;8.50;;;;;23.13;48.30;99247.66;5073693;28;45482;-63
2023/08/16 02:50:03;;;;;;;;;9.50;8.25;;;;;23.12;48.73;99253.22;5074556;28;45791;-63
2023/08/16 02:52:28;;;;;;;;;8.00;8.00;;;;;23.08;48.70;99249.94;5074348;28;45550;-63
2023/08/16 02:54:54;;;;;;;;;11.50;10.00;;;;;23.03;48.79;99252.19;5074148;28;45807;-63
2023/08/16 02:57:19;;;;;;;;;11.25;8.00;;;;;22.96;48.93;99251.03;5074339;28;45360;-63
2023/08/16 02:59:48;;;;;;;;;7.25;7.25;;;;;22.90;48.63;99251.59;5074467;28;45485;-63
2023/08/16 03:02:14;;;;;;;;;10.25;8.00;;;;;22.84;48.72;99255.66;5074370;28;45492;-63
2023/08/16 03:04:39;;;;;;;;;9.25;9.00;;;;;22.83;49.15;99253.09;5073790;28;46396;-63
2023/08/16 03:07:06;;;;;;;;;10.00;9.00;;;;;22.84;49.10;99250.28;5074208;28;45456;-63
2023/08/16 03:09:32;;;;;;;;;10.25;9.25;;;;;22.87;48.97;99247.31;5074335;28;45357;-63
2023/08/16 03:11:58;;;;;;;;;11.00;11.00;;;;;22.86;48.64;99252.84;5076665;28;45536;-63
2023/08/16 03:14:23;;;;;;;;;9.75;9.75;;;;;22.77;49.01;99249.13;5077265;28;45677;-63
2023/08/16 03:16:49;;;;;;;;;9.25;9.00;;;;;22.71;49.24;99248.78;5077683;28;45532;-63
2023/08/16 03:19:14;;;;;;;;;7.00;7.00;;;;;22.67;49.22;99250.03;5076782;28;45427;-63
2023/08/16 03:21:40;;;;;;;;;10.00;10.00;;;;;22.61;50.24;99246.06;5077164;28;45356;-63
2023/08/16 03:24:05;;;;;;;;;12.00;10.00;;;;;22.52;50.65;99247.72;5076922;28;46510;-63
2023/08/16 03:26:31;;;;;;;;;9.25;9.25;;;;;22.43;50.20;99248.53;5077231;28;45328;-63
2023/08/16 03:28:56;;;;;;;;;10.00;10.00;;;;;22.41;48.91;99250.50;5077177;28;45472;-63
2023/08/16 03:31:22;;;;;;;;;10.50;9.75;;;;;22.42;49.83;99254.03;5075687;28;45415;-63
2023/08/16 03:33:48;;;;;;;;;9.50;8.25;;;;;22.42;49.72;99246.81;5076709;28;45403;-63
2023/08/16 03:36:13;;;;;;;;;8.75;8.00;;;;;22.44;49.44;99257.44;5077241;28;45537;-63
2023/08/16 03:38:41;;;;;;;;;12.00;11.00;;;;;22.44;49.30;99254.75;5077280;28;45594;-63
2023/08/16 03:41:07;;;;;;;;;9.00;9.00;;;;;22.42;49.11;99252.19;5077263;28;45400;-63
2023/08/16 03:43:36;;;;;;;;;10.75;9.50;;;;;22.40;49.02;99259.53;5076961;27;46234;-63
2023/08/16 03:46:05;;;;;;;;;8.60;8.60;;;;;22.41;49.31;99263.91;5076995;28;45415;-63
2023/08/16 03:48:31;;;;;;;;;11.00;10.25;;;;;22.44;49.61;99260.97;5076260;28;45310;-63
2023/08/16 03:50:57;;;;;;;;;11.25;10.50;;;;;22.40;49.69;99262.22;5077370;28;45403;-63
2023/08/16 03:53:22;;;;;;;;;11.25;9.75;;;;;22.36;49.35;99268.84;5076781;28;45518;-64
2023/08/16 03:55:56;;;;;;;;;8.75;8.75;;;;;22.31;49.79;99272.88;5076844;28;45426;-63
2023/08/16 03:58:22;;;;;;;;;9.50;9.00;;;;;22.28;49.79;99274.03;5076744;28;45426;-63
2023/08/16 04:00:48;;;;;;;;;10.00;10.00;;;;;22.24;49.70;99280.63;5076717;28;45427;-63
2023/08/16 04:03:13;;;;;;;;;12.00;11.25;;;;;22.19;50.01;99277.47;5076533;28;46451;-64
2023/08/16 04:05:39;;;;;;;;;9.75;8.00;;;;;22.16;50.70;99283.09;5076654;28;45551;-63
2023/08/16 04:08:04;;;;;;;;;11.50;10.75;;;;;22.14;50.67;99280.56;5076536;28;45424;-64
2023/08/16 04:10:30;;;;;;;;;6.00;5.25;;;;;22.15;50.63;99281.41;5075364;28;45954;-63
2023/08/16 04:12:55;;;;;;;;;10.50;9.75;;;;;22.17;51.04;99285.66;5076648;28;45403;-63
2023/08/16 04:15:20;;;;;;;;;10.50;10.25;;;;;22.21;50.70;99284.44;5076600;28;45462;-63
2023/08/16 04:17:46;;;;;;;;;9.25;9.00;;;;;22.26;50.78;99286.72;5076598;28;45452;-63
2023/08/16 04:20:11;;;;;;;;;8.75;8.75;;;;;22.31;50.86;99289.00;5076656;28;45542;-63
2023/08/16 04:22:37;;;;;;;;;10.00;10.00;;;;;22.34;50.70;99286.06;5075289;28;46333;-63
2023/08/16 04:25:03;;;;;;;;;9.00;9.00;;;;;22.34;50.26;99286.91;5076716;28;45397;-63
2023/08/16 04:27:29;;;;;;;;;11.00;11.00;;;;;22.35;49.93;99291.31;5076704;27;45369;-64
2023/08/16 04:29:54;;;;;;;;;7.00;7.00;;;;;22.35;50.13;99291.31;5076506;28;45455;-63
2023/08/16 04:32:20;;;;;;;;;9.00;9.00;;;;;22.34;50.98;99294.13;5075907;28;45554;-64
2023/08/16 04:34:45;;;;;;;;;10.00;10.00;;;;;22.33;50.70;99304.00;5076066;28;45462;-63
2023/08/16 04:37:10;;;;;;;;;9.00;9.00;;;;;22.32;50.58;99304.13;5076482;28;45489;-64
2023/08/16 04:39:36;;;;;;;;;9.75;9.75;;;;;22.28;51.01;99304.44;5074919;28;45384;-63
2023/08/16 04:42:01;;;;;;;;;9.75;9.25;;;;;22.28;51.12;99296.38;5075917;28;45473;-63
2023/08/16 04:44:26;;;;;;;;;9.50;8.25;;;;;22.28;51.06;99301.75;5075944;28;45403;-63
2023/08/16 04:46:52;;;;;;;;;11.00;10.75;;;;;22.28;51.07;99295.50;5075811;28;45765;-63
2023/08/16 04:49:18;;;;;;;;;10.00;9.75;;;;;22.29;51.30;99305.25;5075518;28;45673;-63
2023/08/16 04:51:44;;;;;;;;;11.00;9.25;;;;;22.28;51.52;99301.75;5074520;27;48226;-63
2023/08/16 04:54:09;;;;;;;;;9.00;8.50;;;;;22.27;51.37;99304.56;5075902;28;45482;-63
2023/08/16 04:56:34;;;;;;;;;12.00;11.00;;;;;22.27;51.62;99301.88;5075463;28;45994;-63
2023/08/16 04:59:00;;;;;;;;;12.00;10.25;;;;;22.27;51.96;99300.03;5074648;28;45531;-64
2023/08/16 05:01:25;;;;;;;;;11.75;11.25;;;;;22.28;51.43;99306.25;5075836;28;45444;-63
2023/08/16 05:03:51;;;;;;;;;10.75;10.75;;;;;22.29;52.14;99300.72;5075356;28;45359;-63
2023/08/16 05:06:17;;;;;;;;;13.50;13.25;;;;;22.33;51.80;99300.47;5075721;28;45347;-63
2023/08/16 05:08:43;;;;;;;;;10.00;10.00;;;;;22.37;52.15;99301.91;5075595;27;45322;-63
2023/08/16 05:11:09;;;;;;;;;11.75;11.75;;;;;22.37;52.56;99300.09;5075295;28;46378;-64
2023/08/16 05:13:34;;;;;;;;;12.75;10.25;;;;;22.41;51.76;99308.75;5075297;28;45518;-63
2023/08/16 05:15:59;;;;;;;;;10.50;10.50;;;;;22.42;52.11;99315.81;5075378;28;45463;-64
2023/08/16 05:18:25;;;;;;;;;9.25;9.25;;;;;22.40;51.81;99313.25;5074496;28;45435;-63
2023/08/16 05:20:50;;;;;;;;;12.50;11.75;;;;;22.41;51.89;99314.13;5075213;28;45583;-63
2023/08/16 05:23:15;;;;;;;;;11.25;11.00;;;;;22.41;52.32;99314.97;5075405;28;45466;-65
2023/08/16 05:25:41;;;;;;;;;11.25;11.00;;;;;22.42;52.59;99307.75;5075463;28;45388;-63
2023/08/16 05:28:07;;;;;;;;;11.00;10.50;;;;;22.42;52.68;99305.94;5075452;28;45432;-64
2023/08/16 05:30:32;;;;;;;;;14.75;13.00;;;;;22.44;52.08;99317.41;5075033;28;45830;-64
2023/08/16 05:32:58;;;;;;;;;12.00;12.00;;;;;22.49;51.45;99317.84;5074699;28;45399;-64
2023/08/16 05:35:24;;;;;;;;;11.75;11.75;;;;;22.51;51.07;99323.94;5074751;28;45366;-64
2023/08/16 05:37:53;;;;;;;;;12.00;12.00;;;;;22.55;50.22;99314.63;5075132;28;45339;-64
2023/08/16 05:40:19;;;;;;;;;12.25;9.75;;;;;22.60;49.87;99319.63;5074781;28;45632;-63
2023/08/16 05:42:44;;;;;;;;;13.25;11.75;;;;;22.64;49.60;99324.56;5074931;28;45446;-64
2023/08/16 05:45:09;;;;;;;;;15.75;12.00;;;;;22.70;49.79;99331.25;5075175;28;45361;-64
2023/08/16 05:47:35;;;;;;;;;11.25;10.75;;;;;22.71;50.78;99318.66;5074200;28;45542;-64
2023/08/16 05:50:00;;;;;;;;;15.25;12.50;;;;;22.70;50.22;99322.34;5074655;28;45422;-64
2023/08/16 05:52:27;;;;;;;;;9.50;8.75;;;;;22.68;49.88;99324.31;5074997;28;45437;-64
2023/08/16 05:54:52;;;;;;;;;11.00;11.00;;;;;22.68;50.26;99317.09;5073731;28;45414;-64
2023/08/16 05:57:17;;;;;;;;;12.75;12.00;;;;;22.72;50.13;99323.91;5074897;28;45428;-64
2023/08/16 05:59:43;;;;;;;;;12.00;10.00;;;;;22.75;50.53;99320.97;5075231;28;46079;-64
2023/08/16 06:02:08;;;;;;;;;13.25;12.25;;;;;22.79;50.99;99322.41;5074759;28;45432;-64
2023/08/16 06:04:34;;;;;;;;;11.25;10.00;;;;;22.83;50.37;99323.84;5107327;27;45442;-64
2023/08/16 06:07:00;;;;;;;;;12.00;11.00;;;;;22.85;49.05;99323.72;5090924;27;45487;-64
2023/08/16 06:09:26;;;;;;;;;12.25;12.25;;;;;22.85;49.78;99316.50;5074727;28;46279;-64
2023/08/16 06:11:51;;;;;;;;;12.25;11.50;;;;;22.87;50.27;99327.97;5074845;28;45408;-64
2023/08/16 06:14:17;;;;;;;;;12.00;11.50;;;;;22.88;48.91;99316.25;5074877;28;45343;-64
2023/08/16 06:16:42;;;;;;;;;11.50;10.50;;;;;22.92;48.15;99311.47;5074513;28;45419;-64
2023/08/16 06:19:08;;;;;;;;;12.25;10.75;;;;;22.96;48.79;99313.72;5073680;28;45580;-64
2023/08/16 06:21:34;;;;;;;;;11.60;11.00;;;;;23.01;48.93;99320.53;5073768;28;45439;-64
2023/08/16 06:23:59;;;;;;;;;12.25;12.00;;;;;23.07;48.85;99311.94;5074590;28;45484;-64
2023/08/16 06:26:25;;;;;;;;;11.75;11.75;;;;;23.16;49.16;99316.50;5074503;28;45458;-64
2023/08/16 06:28:51;;;;;;;;;12.00;11.75;;;;;23.27;49.00;99313.72;5073970;28;45518;-64
2023/08/16 06:31:17;;;;;;;;;7.40;6.60;;;;;23.35;49.09;99313.88;5074481;28;45487;-64
2023/08/16 06:33:43;;;;;;;;;12.25;12.00;;;;;23.42;49.21;99314.19;5073949;28;45475;-64
2023/08/16 06:36:09;;;;;;;;;8.00;8.00;;;;;23.48;48.76;99316.28;5073838;28;45431;-64
2023/08/16 06:38:34;;;;;;;;;14.50;14.00;;;;;23.55;48.98;99318.34;5073621;28;46112;-64
2023/08/16 06:41:00;;;;;;;;;11.50;10.50;;;;;23.61;48.63;99311.56;5073594;28;45483;-63
2023/08/16 06:43:25;;;;;;;;;7.25;7.00;;;;;23.67;48.67;99313.69;5088727;27;45758;-64
2023/08/16 06:45:50;;;;;;;;;12.75;12.75;;;;;23.71;48.66;99308.88;5074419;28;45536;-64
2023/08/16 06:48:16;;;;;;;;;9.00;9.00;;;;;23.74;48.73;99313.97;5076460;28;46150;-63
2023/08/16 06:50:41;;;;;;;;;12.00;12.00;;;;;23.80;48.88;99316.94;5077795;28;45354;-64
2023/08/16 06:53:07;;;;;;;;;9.00;8.25;;;;;23.85;48.54;99317.38;5077440;28;45466;-64
2023/08/16 06:55:34;;;;;;;;;13.50;12.75;;;;;23.92;48.80;99317.69;5076922;28;45368;-63
2023/08/16 06:58:01;;;;;;;;;9.50;9.50;;;;;23.98;48.73;99315.25;5076799;28;46242;-64
2023/08/16 07:00:26;;;;;;;;;12.50;11.00;;;;;24.04;48.71;99321.06;5077540;28;45352;-64
2023/08/16 07:02:52;;;;;;;;;12.00;10.50;;;;;24.09;48.14;99314.28;5077257;28;45421;-64
2023/08/16 07:05:17;;;;;;;;;8.50;5.25;;;;;24.15;48.50;99315.53;5076573;28;45468;-63
2023/08/16 07:07:42;;;;;;;;;11.50;11.50;;;;;24.19;48.04;99307.03;5076808;28;45409;-64
2023/08/16 07:10:09;;;;;;;;;14.00;9.50;;;;;24.25;47.55;99313.72;5077365;28;45418;-64
2023/08/16 07:12:34;;;;;;;;;11.00;10.25;;;;;24.27;48.01;99304.53;5075622;28;45458;-64
2023/08/16 07:15:00;;;;;;;;;12.75;10.75;;;;;24.26;48.32;99305.50;5077328;28;45368;-64
2023/08/16 07:17:25;;;;;;;;;10.75;9.75;;;;;24.29;48.43;99304.38;5076813;27;46421;-64
2023/08/16 07:19:52;;;;;;;;;11.75;11.75;;;;;24.32;48.11;99296.81;5077389;28;45399;-64
2023/08/16 07:22:20;;;;;;;;;12.00;12.00;;;;;24.38;47.80;99294.56;5077248;28;45374;-64
2023/08/16 07:24:45;;;;;;;;;10.75;10.75;;;;;24.44;47.73;99292.16;5076646;27;46090;-64
2023/08/16 07:27:11;;;;;;;;;10.25;10.25;;;;;24.52;47.93;99300.34;5075539;28;47267;-64
2023/08/16 07:29:36;;;;;;;;;11.50;11.50;;;;;24.59;48.29;99295.22;5077294;27;45493;-64
2023/08/16 07:32:01;;;;;;;;;11.50;11.50;;;;;24.65;48.18;99289.22;5076982;28;45447;-64
2023/08/16 07:34:27;;;;;;;;;13.75;12.00;;;;;24.70;48.07;99293.19;5076931;28;45421;-64
2023/08/16 07:36:52;;;;;;;;;8.50;7.50;;;;;24.78;47.71;99287.09;5109827;27;47169;-64
2023/08/16 07:39:17;;;;;;;;;13.25;12.25;;;;;24.86;47.87;99291.72;5077134;28;45406;-64
2023/08/16 07:41:43;;;;;;;;;11.50;11.50;;;;;24.92;47.92;99289.28;5076097;28;45537;-64
2023/08/16 07:44:09;;;;;;;;;12.25;9.75;;;;;24.99;47.54;99297.66;5076693;28;45438;-64
2023/08/16 07:46:34;;;;;;;;;11.00;11.00;;;;;25.04;47.36;99295.38;5076226;28;46536;-63
2023/08/16 07:48:59;;;;;;;;;12.50;12.00;;;;;25.09;47.79;99298.47;5076070;28;45420;-64
2023/08/16 07:51:25;;;;;;;;;11.00;11.00;;;;;25.15;47.35;99302.41;5076769;28;45387;-64
2023/08/16 07:53:50;;;;;;;;;13.00;11.50;;;;;25.18;47.56;99299.41;5076106;28;45366;-65
2023/08/16 07:56:16;;;;;;;;;12.50;12.50;;;;;25.20;47.22;99283.94;5075797;28;45237;-64
2023/08/16 07:58:41;;;;;;;;;13.50;12.75;;;;;25.23;47.20;99291.72;5076748;28;45418;-64
2023/08/16 08:01:07;;;;;;;;;11.00;11.00;;;;;25.27;47.43;99290.44;5076771;28;45388;-64
2023/08/16 08:03:33;;;;;;;;;12.50;11.00;;;;;25.32;47.18;99290.81;5076019;28;45350;-64
2023/08/16 08:06:02;;;;;;;;;13.50;11.75;;;;;25.37;47.15;99285.81;5076262;28;45609;-64
2023/08/16 08:08:27;;;;;;;;;12.20;10.40;;;;;25.41;47.09;99292.63;5076517;27;45486;-64
2023/08/16 08:10:52;;;;;;;;;13.00;11.25;;;;;25.47;46.62;99296.59;5076549;28;45436;-64
2023/08/16 08:13:18;;;;;;;;;6.25;6.25;;;;;25.51;46.57;99295.25;5074693;28;45539;-64
2023/08/16 08:15:43;;;;;;;;;11.25;10.00;;;;;25.56;46.57;99288.41;5076258;28;45504;-64
2023/08/16 08:18:09;;;;;;;;;10.00;9.25;;;;;25.63;46.73;99289.53;5075396;28;45388;-63
2023/08/16 08:20:36;;;;;;;;;13.25;11.00;;;;;25.70;46.19;99292.47;5075870;28;45874;-64
2023/08/16 08:23:02;;;;;;;;;7.50;7.50;;;;;25.77;45.85;99296.25;5074934;28;45406;-64
2023/08/16 08:25:29;;;;;;;;;12.25;12.00;;;;;25.84;45.70;99293.78;5074786;27;45460;-64
2023/08/16 08:27:55;;;;;;;;;8.20;7.60;;;;;25.89;45.74;99300.41;5074489;28;45634;-64
2023/08/16 08:30:20;;;;;;;;;11.50;11.50;;;;;25.94;45.58;99299.97;5076195;27;45438;-65
2023/08/16 08:32:46;;;;;;;;;13.00;11.25;;;;;25.99;45.21;99293.06;5074963;27;45644;-64
2023/08/16 08:35:11;;;;;;;;;11.25;10.25;;;;;26.04;45.42;99290.75;5074027;28;46865;-64
2023/08/16 08:37:37;;;;;;;;;12.75;12.75;;;;;26.10;45.23;99291.16;5075816;28;45459;-65
2023/08/16 08:40:04;;;;;;;;;12.00;9.50;;;;;26.16;45.16;99280.53;5074942;28;45585;-64
2023/08/16 08:42:31;;;;;;;;;13.25;11.00;;;;;26.21;44.85;99288.19;5075684;28;45470;-64
2023/08/16 08:44:58;;;;;;;;;11.25;11.00;;;;;26.24;44.53;99290.59;5075182;28;46270;-64
2023/08/16 08:47:24;;;;;;;;;12.75;12.00;;;;;26.29;44.52;99291.84;5074894;28;45448;-64
2023/08/16 08:49:50;;;;;;;;;11.50;11.25;;;;;26.34;44.20;99291.38;5075462;27;45448;-64
2023/08/16 08:52:17;;;;;;;;;12.75;12.00;;;;;26.41;44.39;99290.59;5074910;28;45444;-64
2023/08/16 08:54:43;;;;;;;;;11.75;11.50;;;;;26.49;43.76;99300.59;5074754;28;45387;-64
2023/08/16 08:57:11;;;;;;;;;13.20;11.00;;;;;26.54;43.66;99292.88;5075191;28;45459;-64
2023/08/16 08:59:43;;;;;;;;;13.00;13.00;;;;;26.61;43.64;99301.19;5075078;28;45341;-64
2023/08/16 09:02:10;;;;;;;;;12.75;10.25;;;;;26.67;43.29;99292.44;5090940;27;45484;-64
2023/08/16 09:04:36;;;;;;;;;9.75;9.75;;;;;26.75;42.92;99289.78;5075639;28;46456;-64
2023/08/16 09:07:07;;;;;;;;;11.50;11.00;;;;;26.82;42.77;99289.97;5075352;28;45379;-64
2023/08/16 09:09:32;;;;;;;;;9.75;9.50;;;;;26.87;42.98;99293.91;5074670;28;45394;-64
2023/08/16 09:11:58;;;;;;;;;11.50;11.50;;;;;26.95;42.94;99287.75;5091092;27;45432;-64
2023/08/16 09:14:23;;;;;;;;;11.75;11.75;;;;;27.02;42.27;99291.47;5075344;28;45523;-64
2023/08/16 09:16:49;;;;;;;;;13.50;12.75;;;;;27.08;42.08;99285.44;5075527;28;45515;-64
2023/08/16 09:19:15;;;;;;;;;12.50;12.50;;;;;27.17;41.52;99297.97;5074690;28;45530;-64
2023/08/16 09:21:42;;;;;;;;;14.25;13.00;;;;;27.25;41.83;99287.19;5073767;28;46254;-64
2023/08/16 09:24:07;;;;;;;;;12.00;11.00;;;;;27.35;41.82;99287.03;5075102;27;47151;-64
2023/08/16 09:26:33;;;;;;;;;10.75;10.00;;;;;27.42;41.70;99280.81;5074852;27;45374;-64
2023/08/16 09:29:00;;;;;;;;;14.00;11.75;;;;;27.52;41.67;99282.53;5075824;28;45314;-64
2023/08/16 09:31:31;;;;;;;;;12.00;12.00;;;;;27.62;40.93;99285.97;5075285;27;45518;-64
2023/08/16 09:34:01;;;;;;;;;11.25;10.25;;;;;27.71;41.08;99284.97;5074475;28;45414;-64
2023/08/16 09:36:30;;;;;;;;;10.20;9.60;;;;;27.76;40.68;99288.03;5054651;28;45491;-64
2023/08/16 09:39:04;;;;;;;;;8.50;8.50;;;;;27.84;40.46;99279.06;5070543;28;45347;-65
2023/08/16 09:41:30;;;;;;;;;10.75;10.75;;;;;27.94;39.67;99285.19;5054710;28;45536;-64
2023/08/16 09:44:06;;;;;;;;;10.50;10.25;;;;;28.03;39.57;99279.59;5054537;28;46233;-64
2023/08/16 09:46:33;;;;;;;;;12.60;12.40;;;;;28.13;37.92;99277.56;5054686;28;45428;-64
2023/08/16 09:49:07;;;;;;;;;14.00;13.75;;;;;28.22;38.06;99273.00;5053140;28;45403;-64
2023/08/16 09:51:36;;;;;;;;;10.50;10.50;;;;;28.33;37.80;99267.22;5055209;28;45425;-64
2023/08/16 09:54:03;;;;;;;;;14.75;13.00;;;;;28.45;38.52;99268.59;5054391;28;45478;-65
2023/08/16 09:56:32;;;;;;;;;13.00;10.50;;;;;28.57;38.04;99263.66;5054280;28;45432;-64
2023/08/16 09:58:59;;;;;;;;;13.25;11.25;;;;;28.67;37.77;99260.72;5054653;28;45368;-65
2023/08/16 10:01:24;;;;;;;;;9.25;9.25;;;;;28.77;37.27;99250.53;5054774;28;45497;-63
2023/08/16 10:03:53;;;;;;;;;11.75;11.25;;;;;28.89;37.38;99256.47;5051814;28;46611;-64
2023/08/16 10:06:23;;;;;;;;;12.00;11.80;;;;;28.94;36.69;99251.38;5063231;28;45507;-64
2023/08/16 10:08:52;;;;;;;;;12.75;9.50;;;;;28.97;37.21;99251.88;5074357;27;45521;-64
2023/08/16 10:11:18;;;;;;;;;12.50;11.75;;;;;28.99;36.81;99246.28;5074303;28;45662;-64
2023/08/16 10:13:44;;;;;;;;;11.50;10.75;;;;;28.99;36.17;99236.22;5074657;28;46497;-63
2023/08/16 10:16:13;;;;;;;;;13.50;13.50;;;;;29.01;36.13;99241.47;5074772;28;45443;-64
2023/08/16 10:18:46;;;;;;;;;14.00;12.25;;;;;29.06;36.68;99241.81;5074409;28;45378;-63
2023/08/16 10:21:16;;;;;;;;;10.75;8.00;;;;;29.15;36.99;99233.47;5073205;28;45392;-64
2023/08/16 10:23:42;;;;;;;;;10.25;10.00;;;;;29.26;36.36;99234.94;5074197;28;45450;-64
2023/08/16 10:26:13;;;;;;;;;10.80;10.80;;;;;29.35;37.32;99233.00;5074586;28;45471;-64
2023/08/16 10:28:42;;;;;;;;;12.75;11.75;;;;;29.39;35.54;99235.22;5072361;28;45357;-63
2023/08/16 10:31:09;;;;;;;;;14.25;11.00;;;;;29.38;35.09;99235.38;5073911;28;45419;-64
2023/08/16 10:33:38;;;;;;;;;10.75;9.25;;;;;29.37;35.61;99230.94;5073734;28;46603;-63
2023/08/16 10:36:05;;;;;;;;;10.80;10.20;;;;;29.38;34.40;99221.78;5074374;28;45362;-63
2023/08/16 10:38:37;;;;;;;;;12.00;12.00;;;;;29.37;35.04;99220.94;5074356;28;45440;-64
2023/08/16 10:41:10;;;;;;;;;10.50;10.50;;;;;29.38;35.47;99217.19;5074362;28;45416;-64
2023/08/16 10:43:36;;;;;;;;;14.00;13.00;;;;;29.41;35.85;99208.72;5073982;28;45574;-64
2023/08/16 10:46:01;;;;;;;;;9.25;9.25;;;;;29.47;35.72;99199.03;5073928;28;45421;-64
2023/08/16 10:48:34;;;;;;;;;8.75;8.75;;;;;29.54;35.92;99186.38;5073408;28;45475;-64
2023/08/16 10:51:07;;;;;;;;;11.25;10.75;;;;;29.63;35.20;99188.03;5074283;28;45423;-64
2023/08/16 10:53:39;;;;;;;;;9.25;8.50;;;;;29.75;34.29;99188.44;5073586;27;45461;-64
2023/08/16 10:56:06;;;;;;;;;7.20;7.00;;;;;29.84;33.65;99179.19;5074269;28;45384;-64
2023/08/16 10:58:42;;;;;;;;;9.50;8.50;;;;;29.95;33.72;99176.03;5089546;27;45408;-65
2023/08/16 11:01:08;;;;;;;;;7.25;7.00;;;;;30.06;33.04;99182.94;5074481;28;45487;-64
2023/08/16 11:03:34;;;;;;;;;7.50;7.50;;;;;30.15;32.74;99171.81;5072231;28;47303;-64
2023/08/16 11:06:06;;;;;;;;;6.40;5.60;;;;;30.29;31.49;99169.28;5073765;28;45443;-64
2023/08/16 11:08:31;;;;;;;;;8.00;6.60;;;;;30.42;30.62;99164.03;5073821;28;45373;-64
2023/08/16 11:10:58;;;;;;;;;7.00;7.00;;;;;30.52;29.92;99157.25;5073936;28;45557;-64
2023/08/16 11:13:24;;;;;;;;;5.00;5.00;;;;;30.63;30.61;99163.31;5073401;27;46899;-62
2023/08/16 11:15:49;;;;;;;;;6.25;6.25;;;;;30.70;29.70;99156.91;5073973;28;45385;-64
2023/08/16 11:18:31;;;;;;;;;9.00;7.25;;;;;30.80;30.37;99162.94;5073150;28;45792;-64
2023/08/16 11:20:59;;;;;;;;;8.00;7.50;;;;;30.90;30.18;99159.91;5073238;28;45467;-64